Time;durP1;ratioP1;P1;durP2;ratioP2;P2;SDS_P1;SDS_P2;PMS_P1;PMS_P2;Temp;Humidity;BMP_temperature;BMP_pressure;BME280_temperature;BME280_humidity;BME280_pressure;Samples;Min_cycle;Max_cycle;Signal;HPM_P1;HPM_P2
2021/12/18 00:00:41;;;;;;;14.38;7.20;;;;;;;1.44;79.38;98491.20;1705095;83;25747;-80
2021/12/18 00:03:09;;;;;;;17.25;6.78;;;;;;;1.46;79.31;98482.58;1704921;83;25731;-80
2021/12/18 00:05:35;;;;;;;14.73;6.45;;;;;;;1.46;79.28;98470.61;1705195;84;25732;-80
2021/12/18 00:08:02;;;;;;;15.88;7.42;;;;;;;1.44;79.18;98480.07;1704930;83;25686;-80
2021/12/18 00:10:30;;;;;;;18.23;6.83;;;;;;;1.46;79.15;98477.26;1705183;83;27367;-80
2021/12/18 00:12:56;;;;;;;12.25;6.12;;;;;;;1.45;79.17;98478.22;1705125;83;25896;-80
2021/12/18 00:15:24;;;;;;;17.82;6.78;;;;;;;1.43;79.15;98472.21;1705147;83;25715;-79
2021/12/18 00:17:51;;;;;;;16.02;6.30;;;;;;;1.43;79.16;98470.88;1705175;83;26301;-80
2021/12/18 00:20:18;;;;;;;19.60;7.03;;;;;;;1.43;79.09;98481.53;1705223;84;25763;-80
2021/12/18 00:22:46;;;;;;;19.10;7.75;;;;;;;1.44;79.06;98487.21;1704873;83;27457;-80
2021/12/18 00:25:13;;;;;;;25.17;8.25;;;;;;;1.47;79.15;98498.05;1705142;83;25746;-79
2021/12/18 00:27:40;;;;;;;21.55;7.60;;;;;;;1.48;79.22;98508.58;1705160;83;25769;-79
2021/12/18 00:30:09;;;;;;;18.55;7.03;;;;;;;1.51;79.17;98511.47;1705149;83;25714;-80
2021/12/18 00:32:36;;;;;;;15.18;7.15;;;;;;;1.53;79.10;98524.17;1705199;83;25827;-80
2021/12/18 00:35:04;;;;;;;14.40;6.60;;;;;;;1.50;79.14;98527.08;1705055;84;28385;-80
2021/12/18 00:37:30;;;;;;;16.27;7.37;;;;;;;1.46;79.11;98527.81;1705118;83;25866;-80
2021/12/18 00:39:59;;;;;;;17.92;7.58;;;;;;;1.47;79.11;98534.83;1704171;83;25724;-80
2021/12/18 00:45:10;;;;;;;21.30;8.10;;;;;;;1.48;79.25;98539.17;1699846;83;25708;-79
2021/12/18 00:47:37;;;;;;;16.52;8.75;;;;;;;1.53;79.27;98539.66;1699793;84;28030;-80
2021/12/18 00:50:12;;;;;;;21.68;8.70;;;;;;;1.58;79.27;98540.09;1699710;83;25754;-80
2021/12/18 00:52:39;;;;;;;17.92;8.75;;;;;;;1.60;79.30;98544.81;1699869;83;25664;-80
2021/12/18 00:55:07;;;;;;;18.25;8.50;;;;;;;1.62;79.31;98544.69;1699769;83;25790;-80
2021/12/18 00:57:34;;;;;;;25.02;8.08;;;;;;;1.64;79.29;98553.39;1699835;83;25699;-79
2021/12/18 01:00:03;;;;;;;14.23;8.08;;;;;;;1.64;79.28;98562.23;1699555;83;27449;-80
2021/12/18 01:02:30;;;;;;;16.57;8.08;;;;;;;1.59;79.26;98557.75;1699790;83;25688;-80
2021/12/18 01:04:57;;;;;;;19.37;7.67;;;;;;;1.59;79.29;98561.75;1699565;83;25825;-79
2021/12/18 01:07:24;;;;;;;12.70;7.97;;;;;;;1.63;79.30;98571.66;1699826;83;25898;-80
2021/12/18 01:10:04;;;;;;;15.93;7.60;;;;;;;1.64;79.30;98564.89;1699816;83;25968;-80
2021/12/18 01:12:31;;;;;;;18.80;8.95;;;;;;;1.64;79.19;98551.58;1698164;83;27457;-80
2021/12/18 01:15:11;;;;;;;21.07;8.43;;;;;;;1.64;79.18;98558.23;1700259;83;25734;-80
2021/12/18 01:22:49;;;;;;;14.70;7.30;;;;;;;1.74;79.13;98560.48;1699545;83;26448;-80
2021/12/18 01:25:19;;;;;;;16.27;7.47;;;;;;;1.70;78.97;98549.72;1699811;83;27573;-80
2021/12/18 01:27:47;;;;;;;15.05;7.30;;;;;;;1.62;78.93;98556.18;1699732;83;25767;-80
2021/12/18 01:30:14;;;;;;;14.45;7.15;;;;;;;1.52;79.00;98556.59;1699812;83;25710;-80
2021/12/18 01:32:42;;;;;;;23.15;7.78;;;;;;;1.48;79.09;98561.80;1699802;83;25778;-80
2021/12/18 01:35:09;;;;;;;22.77;8.10;;;;;;;1.44;79.16;98567.87;1699800;83;25677;-80
2021/12/18 01:37:36;;;;;;;15.68;7.20;;;;;;;1.38;79.21;98565.70;1699692;83;27999;-80
2021/12/18 01:40:05;;;;;;;20.05;7.50;;;;;;;1.36;79.27;98566.79;1699656;83;25786;-80
2021/12/18 01:53:21;;;;;;;19.45;8.50;;;;;;;1.49;79.57;98543.53;1699740;83;25723;-80
2021/12/18 01:55:50;;;;;;;17.62;8.38;;;;;;;1.53;79.51;98546.30;1699779;83;26275;-80
2021/12/18 01:58:21;;;;;;;20.25;8.13;;;;;;;1.58;79.42;98553.41;1699848;83;26467;-80
2021/12/18 02:00:45;;;;;;;17.42;7.75;;;;;;;1.58;79.36;98558.73;1699370;83;25703;-80
2021/12/18 02:03:12;;;;;;;15.63;7.70;;;;;;;1.54;79.37;98562.63;1699882;83;27467;-80
2021/12/18 02:05:38;;;;;;;17.80;7.58;;;;;;;1.51;79.39;98562.88;1699692;83;25688;-80
2021/12/18 02:08:06;;;;;;;17.25;7.90;;;;;;;1.53;79.37;98565.42;1699856;83;25747;-80
2021/12/18 02:10:45;;;;;;;17.90;7.67;;;;;;;1.49;79.26;98575.46;1699749;83;25722;-80
2021/12/18 02:13:19;;;;;;;16.10;7.22;;;;;;;1.42;79.27;98581.78;1698838;83;25684;-80
2021/12/18 02:21:11;;;;;;;10.72;5.12;;;;;;;1.28;79.18;98594.03;1734699;82;25767;-79
2021/12/18 02:23:39;;;;;;;9.55;3.77;;;;;;;1.17;79.30;98606.50;1736433;81;25773;-80
2021/12/18 02:26:06;;;;;;;10.55;5.47;;;;;;;1.16;79.51;98600.83;1749874;80;25738;-80
2021/12/18 02:28:34;;;;;;;11.50;5.65;;;;;;;1.18;79.58;98600.22;1738516;81;27421;-80
2021/12/18 02:31:00;;;;;;;14.65;6.25;;;;;;;1.22;79.56;98594.99;1732705;81;25679;-80
2021/12/18 02:33:28;;;;;;;14.28;6.50;;;;;;;1.25;79.58;98588.11;1752846;80;25697;-80
2021/12/18 02:35:57;;;;;;;12.10;6.80;;;;;;;1.25;79.69;98585.45;1734939;81;25760;-80
2021/12/18 02:38:45;;;;;;;18.90;7.42;;;;;;;1.22;79.76;98588.34;1699759;84;25740;-80
2021/12/18 02:41:22;;;;;;;25.70;8.50;;;;;;;1.15;79.78;98580.03;1745773;81;28292;-80
2021/12/18 02:43:41;;;;;;;19.17;8.15;;;;;;;1.11;79.91;98594.53;1729932;80;25275;-80
2021/12/18 02:46:09;;;;;;;16.17;7.55;;;;;;;1.13;79.97;98591.27;1723403;83;25722;-80
2021/12/18 02:48:39;;;;;;;16.25;7.90;;;;;;;1.19;80.02;98600.58;1731090;81;25741;-80
2021/12/18 02:51:10;;;;;;;17.05;7.72;;;;;;;1.21;79.99;98602.12;1723417;83;25803;-80
2021/12/18 02:53:40;;;;;;;14.63;7.40;;;;;;;1.23;79.96;98588.70;1740223;81;27393;-80
2021/12/18 02:56:10;;;;;;;14.45;7.45;;;;;;;1.27;80.00;98589.67;1726067;81;25794;-80
2021/12/18 02:58:46;;;;;;;15.98;7.35;;;;;;;1.29;79.97;98581.58;1727225;82;26350;-80
2021/12/18 03:01:21;;;;;;;17.02;8.05;;;;;;;1.34;79.97;98576.70;1723356;83;26389;-80
2021/12/18 03:03:49;;;;;;;21.68;7.58;;;;;;;1.40;79.93;98567.76;1727366;81;25483;-80
2021/12/18 03:09:15;;;;;;;14.83;6.40;;;;;;;1.49;79.79;98576.79;1727099;82;25703;-80
2021/12/18 03:20:30;;;;;;;15.78;7.30;;;;;;;1.61;79.65;98586.91;1727286;82;27404;-80
2021/12/18 03:25:10;;;;;;;16.55;6.47;;;;;;;1.57;79.64;98600.95;1727103;82;25729;-80
2021/12/18 03:27:30;;;;;;;14.18;6.42;;;;;;;1.56;79.68;98600.61;1722041;83;26408;-80
2021/12/18 03:29:57;;;;;;;11.38;6.45;;;;;;;1.53;79.69;98602.19;1727415;82;25292;-80
2021/12/18 03:32:25;;;;;;;14.07;6.28;;;;;;;1.48;79.68;98608.36;1723663;83;27385;-80
2021/12/18 03:34:52;;;;;;;12.65;5.92;;;;;;;1.45;79.75;98604.61;1727195;82;26142;-80
2021/12/18 03:37:20;;;;;;;12.75;6.12;;;;;;;1.44;79.80;98612.27;1723643;83;25793;-80
2021/12/18 03:39:47;;;;;;;10.98;6.00;;;;;;;1.31;79.75;98609.75;1727233;82;25948;-80
2021/12/18 03:42:14;;;;;;;13.40;6.58;;;;;;;1.19;79.82;98611.22;1723797;83;25718;-79
2021/12/18 03:44:41;;;;;;;11.22;6.00;;;;;;;1.17;80.01;98615.33;1735126;81;27450;-80
2021/12/18 03:47:07;;;;;;;12.55;7.22;;;;;;;1.19;80.08;98621.86;1699767;84;25751;-80
2021/12/18 03:49:35;;;;;;;12.15;6.55;;;;;;;1.21;80.15;98621.27;1749078;82;25292;-80
2021/12/18 03:52:02;;;;;;;12.10;6.47;;;;;;;1.23;80.19;98618.81;1734994;81;26375;-80
2021/12/18 03:54:29;;;;;;;14.80;7.97;;;;;;;1.24;80.17;98624.98;1699886;84;25717;-80
2021/12/18 03:56:55;;;;;;;13.60;6.50;;;;;;;1.19;80.15;98621.86;1749044;82;28326;-79
2021/12/18 03:59:22;;;;;;;12.78;6.42;;;;;;;1.21;80.23;98629.23;1734969;81;26255;-80
2021/12/18 04:01:49;;;;;;;17.45;7.20;;;;;;;1.22;80.27;98634.89;1699803;83;25826;-79
2021/12/18 04:04:16;;;;;;;17.30;7.80;;;;;;;1.25;80.31;98629.33;1732974;82;25725;-80
2021/12/18 04:06:43;;;;;;;15.70;7.47;;;;;;;1.25;80.25;98628.00;1733006;82;25863;-80
2021/12/18 04:09:11;;;;;;;16.42;7.15;;;;;;;1.23;80.22;98632.11;1732923;82;27401;-80
2021/12/18 04:11:41;;;;;;;18.00;7.92;;;;;;;1.22;80.20;98638.88;1732810;82;25710;-80
2021/12/18 04:14:10;;;;;;;17.80;8.30;;;;;;;1.18;80.22;98636.97;1732921;82;25889;-79
2021/12/18 04:16:37;;;;;;;12.37;7.55;;;;;;;1.13;80.25;98642.28;1732921;82;26406;-80
2021/12/18 04:19:05;;;;;;;15.53;7.08;;;;;;;1.06;80.29;98647.26;1732973;82;25820;-79
2021/12/18 04:21:34;;;;;;;16.17;7.70;;;;;;;1.06;80.37;98647.26;1732811;82;27362;-79
2021/12/18 04:24:03;;;;;;;19.73;9.00;;;;;;;1.06;80.36;98641.45;1732784;82;25853;-79
2021/12/18 04:26:33;;;;;;;19.35;9.18;;;;;;;1.06;80.37;98633.48;1732651;82;25821;-79
2021/12/18 04:29:05;;;;;;;18.90;8.60;;;;;;;1.08;80.42;98631.55;1733077;82;26458;-80
2021/12/18 04:31:32;;;;;;;;;;;;;;;1.12;80.45;98625.48;1735503;82;25798;-79
2021/12/18 04:33:59;;;;;;;15.78;8.05;;;;;;;1.13;80.43;98628.98;1732900;82;28427;-79
2021/12/18 04:36:25;;;;;;;14.90;8.30;;;;;;;1.05;80.43;98627.80;1732795;82;25978;-79
2021/12/18 04:38:52;;;;;;;14.45;7.78;;;;;;;0.96;80.36;98625.88;1732872;82;25709;-79
2021/12/18 04:41:37;;;;;;;18.17;9.03;;;;;;;0.89;80.43;98620.66;1732879;82;25753;-79
2021/12/18 04:43:51;;;;;;;17.23;7.75;;;;;;;0.88;80.55;98619.45;1732963;82;25758;-79
2021/12/18 04:46:19;;;;;;;16.35;8.78;;;;;;;0.86;80.67;98620.05;1709767;82;27440;-79
2021/12/18 04:48:45;;;;;;;20.17;8.95;;;;;;;0.82;80.69;98613.30;1732841;82;26325;-79
2021/12/18 04:51:12;;;;;;;18.98;9.28;;;;;;;0.82;80.76;98618.62;1732937;82;25739;-80
2021/12/18 04:53:38;;;;;;;15.95;8.38;;;;;;;0.79;80.81;98621.52;1732920;82;26329;-79
2021/12/18 04:56:05;;;;;;;20.57;9.35;;;;;;;0.82;80.98;98618.14;1732963;82;25665;-79
2021/12/18 04:58:31;;;;;;;15.13;8.10;;;;;;;0.82;80.95;98616.81;1732880;82;28227;-79
2021/12/18 05:00:58;;;;;;;16.87;8.28;;;;;;;0.81;80.88;98623.09;1732881;82;25782;-80
2021/12/18 05:03:25;;;;;;;18.50;7.58;;;;;;;0.80;80.86;98621.40;1732880;82;25709;-80
2021/12/18 05:05:51;;;;;;;19.07;7.87;;;;;;;0.80;80.81;98627.20;1732945;82;25672;-80
2021/12/18 05:08:18;;;;;;;15.85;8.28;;;;;;;0.84;80.83;98633.49;1732915;82;25682;-80
2021/12/18 05:10:44;;;;;;;21.25;8.58;;;;;;;0.87;80.78;98630.56;1732881;82;27422;-79
2021/12/18 05:13:11;;;;;;;15.38;8.38;;;;;;;0.89;80.79;98624.66;1732787;82;25701;-79
2021/12/18 05:15:38;;;;;;;15.75;8.38;;;;;;;0.90;80.79;98630.33;1732912;82;25686;-79
2021/12/18 05:18:05;;;;;;;21.35;9.85;;;;;;;0.90;80.79;98634.33;1732946;82;25684;-80
2021/12/18 05:20:31;;;;;;;25.62;11.05;;;;;;;0.94;80.81;98627.80;1732992;82;25662;-79
2021/12/18 05:22:58;;;;;;;24.30;11.85;;;;;;;1.02;80.86;98637.34;1732962;82;27419;-80
2021/12/18 05:25:24;;;;;;;24.12;12.45;;;;;;;1.07;80.77;98639.64;1732777;82;25960;-80
2021/12/18 05:27:51;;;;;;;20.60;11.22;;;;;;;1.12;80.68;98640.59;1732935;82;25665;-80
2021/12/18 05:30:18;;;;;;;19.87;11.12;;;;;;;1.16;80.66;98646.88;1732897;82;25661;-80
2021/12/18 05:32:44;;;;;;;21.73;10.70;;;;;;;1.17;80.52;98648.58;1732956;82;25820;-80
2021/12/18 05:35:13;;;;;;;20.32;10.75;;;;;;;1.20;80.50;98650.16;1732915;82;27610;-80
2021/12/18 05:37:51;;;;;;;19.40;10.98;;;;;;;1.20;80.47;98652.81;1732825;82;25772;-80
2021/12/18 05:40:21;;;;;;;23.65;10.03;;;;;;;1.25;80.50;98643.96;1732871;82;25700;-80
2021/12/18 05:42:49;;;;;;;23.42;10.70;;;;;;;1.31;80.50;98647.00;1729523;82;26389;-79
2021/12/18 05:45:16;;;;;;;20.37;10.88;;;;;;;1.38;80.46;98642.01;1726924;83;25808;-80
2021/12/18 05:47:44;;;;;;;25.60;11.88;;;;;;;1.41;80.41;98643.10;1726886;83;28081;-80
2021/12/18 05:50:13;;;;;;;27.42;13.05;;;;;;;1.44;80.37;98642.38;1727082;82;25741;-79
2021/12/18 05:52:40;;;;;;;30.05;14.68;;;;;;;1.47;80.31;98631.95;1727142;83;25701;-79
2021/12/18 05:55:09;;;;;;;35.25;15.40;;;;;;;1.50;80.24;98632.19;1726895;82;26501;-80
2021/12/18 05:57:36;;;;;;;33.92;15.13;;;;;;;1.52;80.17;98633.76;1727188;82;25681;-80
2021/12/18 06:00:06;;;;;;;30.65;15.45;;;;;;;1.53;80.11;98637.27;1727160;83;28129;-79
2021/12/18 06:02:33;;;;;;;32.42;13.55;;;;;;;1.55;80.02;98637.99;1727049;83;25782;-79
2021/12/18 06:04:59;;;;;;;31.82;14.65;;;;;;;1.55;79.95;98638.84;1727162;82;25284;-79
2021/12/18 06:07:31;;;;;;;34.18;15.85;;;;;;;1.55;79.90;98646.83;1727189;83;25676;-79
2021/12/18 06:09:59;;;;;;;29.42;15.18;;;;;;;1.58;79.96;98651.87;1727213;83;25738;-79
2021/12/18 06:12:26;;;;;;;27.22;14.65;;;;;;;1.61;79.90;98642.80;1727114;83;27543;-79
2021/12/18 06:14:53;;;;;;;29.57;15.65;;;;;;;1.61;79.94;98636.99;1727080;83;25725;-79
2021/12/18 06:17:19;;;;;;;28.98;16.05;;;;;;;1.71;80.21;98646.39;1727185;83;25682;-79
2021/12/18 06:19:46;;;;;;;28.35;14.83;;;;;;;1.73;80.07;98642.64;1727121;82;25791;-80
2021/12/18 06:22:13;;;;;;;24.82;14.23;;;;;;;1.73;79.91;98645.30;1727203;82;26271;-79
2021/12/18 06:24:40;;;;;;;23.57;12.90;;;;;;;1.74;79.87;98640.34;1727136;83;27359;-79
2021/12/18 06:27:06;;;;;;;26.00;13.30;;;;;;;1.76;79.79;98644.22;1727095;83;25571;-79
2021/12/18 06:29:34;;;;;;;21.05;14.05;;;;;;;1.75;79.73;98650.02;1727090;83;25665;-79
2021/12/18 06:32:02;;;;;;;25.65;14.35;;;;;;;1.73;79.64;98655.95;1727148;82;26294;-80
2021/12/18 06:34:29;;;;;;;21.23;12.78;;;;;;;1.72;79.61;98654.26;1727160;82;25634;-80
2021/12/18 06:36:55;;;;;;;26.65;17.98;;;;;;;1.68;79.50;98658.65;1727097;83;27364;-79
2021/12/18 06:39:22;;;;;;;30.52;18.95;;;;;;;1.58;79.44;98668.33;1727135;83;25772;-79
2021/12/18 06:41:49;;;;;;;29.82;17.95;;;;;;;1.51;79.50;98660.01;1727094;82;25758;-79
2021/12/18 06:44:15;;;;;;;31.35;18.62;;;;;;;1.49;79.53;98652.63;1696296;83;25864;-79
2021/12/18 06:46:42;;;;;;;34.55;16.93;;;;;;;1.47;79.57;98659.88;1697474;84;25746;-79
2021/12/18 06:49:10;;;;;;;34.10;15.28;;;;;;;1.47;79.62;98657.70;1696274;83;27454;-79
2021/12/18 06:51:37;;;;;;;28.23;14.93;;;;;;;1.48;79.66;98647.42;1696786;84;25702;-79
2021/12/18 06:54:04;;;;;;;24.67;12.80;;;;;;;1.45;79.58;98661.82;1696325;83;25254;-80
2021/12/18 06:56:31;;;;;;;29.65;14.90;;;;;;;1.42;79.56;98650.96;1726953;83;26462;-80
2021/12/18 06:58:58;;;;;;;29.70;14.00;;;;;;;1.34;79.46;98652.05;1727216;82;25755;-80
2021/12/18 07:01:24;;;;;;;25.90;12.50;;;;;;;1.30;79.47;98656.42;1727133;82;28294;-79
2021/12/18 07:03:51;;;;;;;31.60;14.28;;;;;;;1.31;79.50;98659.45;1727048;83;26023;-79
2021/12/18 07:06:18;;;;;;;31.17;14.83;;;;;;;1.29;79.49;98657.39;1727231;83;25773;-79
2021/12/18 07:08:44;;;;;;;28.73;14.68;;;;;;;1.25;79.47;98651.45;1727208;82;25801;-79
2021/12/18 07:11:11;;;;;;;30.45;14.58;;;;;;;1.23;79.54;98662.70;1727229;83;26070;-79
2021/12/18 07:13:38;;;;;;;31.12;16.15;;;;;;;1.27;79.62;98657.98;1727210;82;28409;-79
2021/12/18 07:16:06;;;;;;;26.57;13.95;;;;;;;1.32;79.64;98658.48;1727104;82;25833;-79
2021/12/18 07:18:32;;;;;;;33.25;15.60;;;;;;;1.32;79.57;98650.50;1726896;83;25750;-79
2021/12/18 07:20:59;;;;;;;33.18;15.55;;;;;;;1.36;79.60;98649.27;1727125;83;25754;-79
2021/12/18 07:23:25;;;;;;;40.58;16.45;;;;;;;1.40;79.56;98652.05;1727186;83;25702;-79
2021/12/18 07:25:52;;;;;;;33.00;14.95;;;;;;;1.41;79.57;98649.75;1710439;83;27477;-79
2021/12/18 07:28:18;;;;;;;33.63;15.13;;;;;;;1.44;79.54;98641.53;1692174;84;25775;-80
2021/12/18 07:30:45;;;;;;;22.90;13.32;;;;;;;1.48;79.54;98638.11;1691528;84;25783;-80
2021/12/18 07:33:12;;;;;;;32.08;18.42;;;;;;;1.51;79.46;98636.06;1692172;84;25711;-80
2021/12/18 07:35:39;;;;;;;27.07;16.32;;;;;;;1.53;79.47;98627.47;1692454;84;26046;-80
2021/12/18 07:38:07;;;;;;;26.90;14.40;;;;;;;1.56;79.43;98623.72;1692614;84;27408;-79
2021/12/18 07:40:36;;;;;;;27.62;14.43;;;;;;;1.53;79.28;98622.15;1692223;84;25983;-79
2021/12/18 07:43:04;;;;;;;29.00;14.30;;;;;;;1.55;79.30;98624.69;1692848;83;25718;-80
2021/12/18 07:45:35;;;;;;;32.53;14.75;;;;;;;1.48;79.18;98619.00;1693877;84;25759;-80
2021/12/18 07:47:59;;;;;;;27.90;15.05;;;;;;;1.45;79.17;98624.08;1693148;84;25734;-79
2021/12/18 07:50:26;;;;;;;27.37;15.15;;;;;;;1.42;79.15;98634.15;1693914;83;27564;-79
2021/12/18 07:52:53;;;;;;;30.97;16.05;;;;;;;1.40;79.13;98636.09;1693714;84;25744;-79
2021/12/18 07:55:19;;;;;;;26.77;14.68;;;;;;;1.39;79.13;98638.38;1693772;84;25782;-79
2021/12/18 07:57:46;;;;;;;24.87;14.75;;;;;;;1.40;79.16;98638.27;1693895;84;26268;-79
2021/12/18 08:00:15;;;;;;;23.87;14.33;;;;;;;1.42;79.11;98647.45;1693830;84;25752;-80
2021/12/18 08:02:41;;;;;;;27.48;14.83;;;;;;;1.35;79.01;98649.75;1693828;84;27365;-79
2021/12/18 08:05:08;;;;;;;28.10;14.75;;;;;;;1.24;78.96;98649.77;1693753;84;25675;-80
2021/12/18 08:07:35;;;;;;;26.27;13.35;;;;;;;1.22;79.05;98655.69;1693515;84;25798;-79
2021/12/18 08:10:03;;;;;;;25.48;12.70;;;;;;;1.24;79.00;98659.56;1693825;83;26451;-80
2021/12/18 08:12:30;;;;;;;18.87;11.25;;;;;;;1.22;78.96;98674.30;1693876;84;25817;-80
2021/12/18 08:14:58;;;;;;;19.02;10.65;;;;;;;1.18;78.83;98667.56;1693834;84;27352;-79
2021/12/18 08:17:25;;;;;;;21.48;11.40;;;;;;;1.17;78.87;98658.37;1693690;84;25838;-79
2021/12/18 08:19:52;;;;;;;21.85;11.38;;;;;;;1.14;78.85;98651.95;1693839;83;25739;-79
2021/12/18 08:22:19;;;;;;;21.33;12.07;;;;;;;1.20;78.94;98648.83;1693836;84;26269;-79
2021/12/18 08:24:45;;;;;;;19.32;11.78;;;;;;;1.27;78.95;98645.54;1693814;84;25726;-79
2021/12/18 08:27:12;;;;;;;20.88;11.73;;;;;;;1.30;78.79;98647.95;1693751;84;28166;-80
2021/12/18 08:29:39;;;;;;;26.35;13.72;;;;;;;1.31;78.68;98659.45;1694037;83;25729;-80
2021/12/18 08:32:06;;;;;;;23.52;13.10;;;;;;;1.29;78.64;98662.71;1693831;84;25767;-79
2021/12/18 08:34:33;;;;;;;23.55;12.15;;;;;;;1.31;78.78;98666.95;1693821;83;25745;-79
2021/12/18 08:37:00;;;;;;;24.20;11.93;;;;;;;1.38;78.78;98657.48;1693846;84;25735;-80
2021/12/18 08:39:27;;;;;;;40.17;16.27;;;;;;;1.43;78.64;98661.13;1693372;84;27442;-80
2021/12/18 08:41:54;;;;;;;35.17;15.90;;;;;;;1.44;78.52;98658.34;1693679;84;25281;-80
2021/12/18 08:44:20;;;;;;;33.08;16.05;;;;;;;1.48;78.44;98658.92;1692622;84;25743;-79
2021/12/18 08:46:47;;;;;;;30.08;15.63;;;;;;;1.40;78.19;98659.55;1692573;83;25713;-80
2021/12/18 08:49:15;;;;;;;24.60;14.87;;;;;;;1.39;78.27;98661.00;1692673;84;25714;-80
2021/12/18 08:51:42;;;;;;;21.33;11.55;;;;;;;1.45;78.31;98664.48;1692461;83;28161;-80
2021/12/18 08:54:08;;;;;;;23.85;12.30;;;;;;;1.49;78.23;98673.92;1692636;84;25679;-80
2021/12/18 08:56:35;;;;;;;27.05;13.78;;;;;;;1.50;78.20;98672.95;1692655;84;25829;-80
2021/12/18 08:59:01;;;;;;;30.70;14.23;;;;;;;1.52;78.21;98673.67;1692626;84;26413;-79
2021/12/18 09:01:29;;;;;;;28.50;17.07;;;;;;;1.56;78.22;98677.80;1692725;84;25719;-80
2021/12/18 09:03:56;;;;;;;31.95;16.05;;;;;;;1.60;78.19;98675.22;1692553;84;26705;-80
2021/12/18 09:06:23;;;;;;;29.35;15.68;;;;;;;1.64;78.15;98675.34;1692526;84;26443;-79
2021/12/18 09:08:52;;;;;;;36.03;19.27;;;;;;;1.64;78.06;98661.19;1692618;84;25754;-80
2021/12/18 09:11:19;;;;;;;32.83;18.20;;;;;;;1.70;78.05;98656.20;1692655;84;25771;-80
2021/12/18 09:13:46;;;;;;;36.53;20.08;;;;;;;1.74;77.97;98657.64;1692603;84;25728;-80
2021/12/18 09:16:12;;;;;;;44.85;22.98;;;;;;;1.81;77.94;98652.69;1692536;84;27549;-80
2021/12/18 09:18:39;;;;;;;49.03;24.30;;;;;;;1.89;77.88;98668.02;1692540;84;25743;-80
2021/12/18 09:21:06;;;;;;;37.58;20.27;;;;;;;1.88;77.67;98663.66;1692560;84;25746;-80
2021/12/18 09:23:33;;;;;;;38.88;20.20;;;;;;;1.76;77.47;98663.70;1692576;84;25843;-80
2021/12/18 09:26:00;;;;;;;36.65;19.42;;;;;;;1.71;77.59;98652.56;1692502;84;25660;-80
2021/12/18 09:28:27;;;;;;;32.08;17.30;;;;;;;1.71;77.78;98649.06;1692481;84;27131;-80
2021/12/18 09:30:53;;;;;;;35.28;16.12;;;;;;;1.69;77.68;98640.38;1692159;84;25289;-80
2021/12/18 09:33:20;;;;;;;27.30;15.72;;;;;;;1.68;77.63;98632.03;1692550;83;25773;-80
2021/12/18 09:35:47;;;;;;;23.30;14.13;;;;;;;1.73;77.62;98624.50;1668575;84;25884;-80
2021/12/18 09:38:13;;;;;;;24.25;13.03;;;;;;;1.74;77.61;98627.03;1692508;84;26348;-80
2021/12/18 09:40:41;;;;;;;30.05;14.15;;;;;;;1.76;77.53;98622.44;1692546;84;27420;-80
2021/12/18 09:43:07;;;;;;;28.17;13.88;;;;;;;1.75;77.46;98613.23;1692853;83;26338;-80
2021/12/18 09:45:35;;;;;;;25.05;14.03;;;;;;;1.77;77.43;98616.14;1700815;84;25827;-80
2021/12/18 09:48:05;;;;;;;26.25;14.63;;;;;;;1.84;77.43;98612.95;1700507;84;43952;-80
2021/12/18 09:50:34;;;;;;;28.40;15.03;;;;;;;1.90;77.39;98609.80;1700624;83;25731;-81
2021/12/18 09:53:00;;;;;;;32.55;14.85;;;;;;;1.96;77.37;98605.28;1700888;84;27440;-81
2021/12/18 09:55:26;;;;;;;33.85;16.82;;;;;;;2.01;77.33;98602.59;1700749;84;25739;-81
2021/12/18 09:57:53;;;;;;;35.78;20.23;;;;;;;2.05;77.18;98603.20;1700827;84;25691;-81
2021/12/18 10:00:24;;;;;;;40.78;19.27;;;;;;;2.03;77.15;98598.48;1700876;84;25888;-81
2021/12/18 10:02:53;;;;;;;34.58;16.57;;;;;;;2.06;77.17;98606.19;1700834;84;25722;-81
2021/12/18 10:05:24;;;;;;;29.77;14.47;;;;;;;2.11;77.14;98601.33;1700704;84;27463;-81
2021/12/18 10:08:15;;;;;;;25.12;13.90;;;;;;;2.15;77.03;98605.44;1726171;82;33198;-81
2021/12/18 10:11:06;;;;;;;24.95;12.13;;;;;;;2.15;76.90;98602.77;1733123;82;25804;-81
2021/12/18 10:13:56;;;;;;;16.85;9.43;;;;;;;2.15;76.69;98601.44;1732880;82;26576;-81
2021/12/18 10:16:24;;;;;;;15.48;9.00;;;;;;;2.06;76.40;98602.19;1726737;83;25929;-81
2021/12/18 10:18:51;;;;;;;13.88;7.45;;;;;;;2.00;76.30;98596.06;1737606;81;27437;-81
2021/12/18 10:21:21;;;;;;;13.95;7.20;;;;;;;1.99;76.24;98585.05;1704978;84;25735;-81
2021/12/18 10:23:51;;;;;;;17.35;8.78;;;;;;;1.99;76.08;98587.72;1751962;81;25744;-81
2021/12/18 10:26:35;;;;;;;16.00;8.65;;;;;;;2.04;76.03;98588.19;1737662;81;25724;-81
2021/12/18 10:29:06;;;;;;;18.60;8.95;;;;;;;2.08;76.01;98584.27;1732936;82;25744;-81
2021/12/18 10:31:43;;;;;;;17.82;9.63;;;;;;;2.13;75.88;98582.08;1726631;83;27382;-81
2021/12/18 10:34:21;;;;;;;16.50;8.83;;;;;;;2.17;75.77;98571.02;1737552;81;25788;-81
2021/12/18 10:37:19;;;;;;;15.18;7.12;;;;;;;2.23;75.59;98559.00;1703977;84;25786;-81
2021/12/18 10:40:07;;;;;;;18.07;8.58;;;;;;;2.24;75.36;98552.70;1695014;83;25697;-82
2021/12/18 10:42:40;;;;;;;16.87;8.28;;;;;;;2.29;75.37;98557.16;1732617;81;25657;-81
2021/12/18 10:45:20;;;;;;;16.15;7.75;;;;;;;2.32;75.33;98556.88;1698759;84;28130;-81
2021/12/18 10:48:09;;;;;;;14.98;8.35;;;;;;;2.34;75.24;98558.92;1691924;84;25803;-81
2021/12/18 10:50:40;;;;;;;17.75;8.43;;;;;;;2.37;75.24;98552.49;1698505;83;26214;-81
2021/12/18 10:53:17;;;;;;;13.53;6.50;;;;;;;2.34;75.16;98548.27;1727094;82;25744;-81
2021/12/18 10:55:54;;;;;;;20.95;9.20;;;;;;;2.38;75.15;98542.19;1692030;84;25679;-81
2021/12/18 10:58:28;;;;;;;15.90;8.63;;;;;;;2.44;75.21;98553.64;1723095;83;27442;-81
2021/12/18 11:01:02;;;;;;;22.65;10.38;;;;;;;2.47;75.10;98547.56;1726787;82;25848;-81
2021/12/18 11:03:47;;;;;;;18.75;9.63;;;;;;;2.50;75.01;98537.98;1727230;82;25837;-81
2021/12/18 11:06:23;;;;;;;17.02;9.88;;;;;;;2.56;74.86;98539.25;1723179;83;26697;-81
2021/12/18 11:09:13;;;;;;;21.60;10.53;;;;;;;2.57;74.58;98534.77;1726951;82;25752;-81
2021/12/18 11:14:40;;;;;;;22.22;12.28;;;;;;;2.48;74.38;98537.27;1726933;83;26260;-81
2021/12/18 11:17:15;;;;;;;20.55;10.70;;;;;;;2.54;74.45;98530.05;1727357;83;26097;-81
2021/12/18 11:19:43;;;;;;;24.90;10.75;;;;;;;2.64;74.34;98519.94;1727262;83;26450;-81
2021/12/18 11:22:14;;;;;;;17.10;9.93;;;;;;;2.65;74.27;98525.62;1727324;82;25773;-81
2021/12/18 11:24:52;;;;;;;25.05;10.75;;;;;;;2.61;74.06;98521.53;1723440;83;27379;-81
2021/12/18 11:27:21;;;;;;;22.35;10.63;;;;;;;2.64;73.99;98523.94;1722460;83;25766;-81
2021/12/18 11:29:57;;;;;;;22.40;10.88;;;;;;;2.65;73.95;98527.81;1723366;83;25759;-81
2021/12/18 11:32:30;;;;;;;22.65;9.30;;;;;;;2.63;73.85;98520.42;1723565;83;25745;-81
2021/12/18 11:35:03;;;;;;;23.02;11.73;;;;;;;2.65;73.85;98518.97;1727080;82;25729;-81
2021/12/18 11:37:43;;;;;;;19.32;10.28;;;;;;;2.67;73.77;98514.31;1727400;83;27626;-81
2021/12/18 11:40:17;;;;;;;18.10;9.10;;;;;;;2.65;73.58;98516.30;1727324;83;25734;-81
2021/12/18 11:42:43;;;;;;;23.73;11.30;;;;;;;2.61;73.50;98513.53;1723379;83;26315;-81
2021/12/18 11:45:12;;;;;;;21.10;11.68;;;;;;;2.53;73.39;98511.55;1724905;82;25681;-81
2021/12/18 11:47:41;;;;;;;39.53;16.82;;;;;;;2.50;73.45;98507.33;1727284;83;25745;-81
2021/12/18 11:50:33;;;;;;;24.50;13.08;;;;;;;2.49;73.49;98505.64;1734725;82;28100;-81
2021/12/18 11:53:04;;;;;;;34.35;16.85;;;;;;;2.49;73.53;98504.30;1704080;83;25308;-81
2021/12/18 11:55:51;;;;;;;29.20;14.07;;;;;;;2.41;73.37;98492.64;1732918;82;25763;-81
2021/12/18 11:58:25;;;;;;;23.25;13.38;;;;;;;2.41;73.37;98492.64;1732990;82;25957;-81
2021/12/18 12:01:00;;;;;;;18.95;10.65;;;;;;;2.44;73.36;98501.19;1728221;82;25743;-81
2021/12/18 12:03:36;;;;;;;33.18;13.88;;;;;;;2.43;73.23;98500.83;1732962;82;28153;-81
2021/12/18 12:06:30;;;;;;;36.17;16.40;;;;;;;2.44;73.22;98497.67;1732815;82;25427;-81
2021/12/18 12:09:35;;;;;;;31.93;17.52;;;;;;;2.44;73.26;98498.52;1691868;84;25774;-80
2021/12/18 12:12:06;;;;;;;31.48;14.28;;;;;;;2.49;73.24;98488.80;1698167;84;27336;-80
2021/12/18 12:14:39;;;;;;;41.13;16.77;;;;;;;2.49;73.15;98489.64;1697362;84;25690;-80
2021/12/18 12:17:24;;;;;;;33.33;15.20;;;;;;;2.44;73.06;98482.53;1697543;84;27395;-80
2021/12/18 12:19:51;;;;;;;39.48;18.10;;;;;;;2.40;73.12;98469.14;1698098;84;26395;-80